Costa Mediterranea — IBCF — position and weather

sailwx.info

Track history (hours):
 
Tides and Currents Weather Stations Pressure Air Temp Water Temp Dewpoint Dewpoint Depression Visibility Wind Speed Wind Dir Waves Ship Positions

Costa Mediterranea

Last reported at 2017-Oct-20 19:28 UTC. Time now 2017-Oct-20 19:51 UTC.
Position N 38°43' W 009°08'.

Length 293 m; draft 8 m.

Type: Passenger vessel. MMSI: 247088200.

Date/timePositionNaut miles runAvg speedWind from/ knotsBaromVisibWave heightAir tempDewpointWater temp
2017-Oct-20 19:28N 38°43' W 009°08'0 0.0
2017-Oct-20 18:58N 38°43' W 009°08'0 0.0
2017-Oct-20 18:28N 38°43' W 009°08'0 0.0
2017-Oct-20 17:58N 38°43' W 009°08'0 0.0
2017-Oct-20 17:28N 38°43' W 009°08'0 0.0
2017-Oct-20 16:58N 38°43' W 009°08'0 0.0
2017-Oct-20 16:28N 38°43' W 009°08'0 0.0
2017-Oct-20 15:58N 38°43' W 009°08'0 0.0
2017-Oct-20 15:28N 38°43' W 009°08'0 0.0
2017-Oct-20 14:58N 38°43' W 009°08'0 0.0
2017-Oct-20 13:58N 38°43' W 009°08'0 0.0
2017-Oct-20 13:28N 38°43' W 009°08'0 0.0
2017-Oct-20 12:58N 38°43' W 009°08'0 0.0
2017-Oct-20 12:27N 38°43' W 009°08'0 0.0
2017-Oct-20 11:58N 38°43' W 009°08'0 0.0
2017-Oct-20 11:28N 38°43' W 009°08'0 0.0
2017-Oct-20 10:58N 38°43' W 009°08'0 0.0
2017-Oct-20 10:30N 38°43' W 009°08'0 0.0
2017-Oct-20 09:59N 38°43' W 009°08'0 0.0
2017-Oct-20 09:29N 38°43' W 009°08'0 0.0
2017-Oct-20 08:59N 38°43' W 009°08'0 0.0
2017-Oct-20 08:30N 38°43' W 009°08'0 0.0
2017-Oct-20 07:59N 38°43' W 009°08'0 0.0
2017-Oct-20 07:29N 38°43' W 009°08'0 1.0
2017-Oct-20 07:00N 38°42' W 009°08'6 9.7
2017-Oct-20 06:25N 38°41' W 009°15'511.6
2017-Oct-20 06:00N 38°39' W 009°20'815.9
2017-Oct-20 05:31N 38°33' W 009°27'817.0
2017-Oct-20 05:01N 38°24' W 009°26'917.5
2017-Oct-20 04:31N 38°15' W 009°25'918.1
2017-Oct-20 04:00N 38°06' W 009°25'918.1
2017-Oct-20 03:30N 37°57' W 009°24'918.2
2017-Oct-20 03:01N 37°48' W 009°24'1318.3
2017-Oct-20 02:17N 37°35' W 009°23'5816.6
2017-Oct-19 22:46N 36°42' W 008°52'519.6
2017-Oct-19 22:30N 36°41' W 008°46'1019.4
2017-Oct-19 22:00N 36°41' W 008°34'1319.6
2017-Oct-19 21:20N 36°39' W 008°18'819.4
2017-Oct-19 20:55N 36°39' W 008°08'124 5.7
2017-Oct-18 23:20N 35°58' W 005°43'514.1
2017-Oct-18 23:01N 35°58' W 005°37'816.6
2017-Oct-18 22:30N 36°00' W 005°27'714.4
2017-Oct-18 22:01N 36°02' W 005°19'612.5
2017-Oct-18 21:31N 36°05' W 005°12'221 7.7
2017-Oct-17 16:42N 37°20' W 000°52'414.5
2017-Oct-17 16:27N 37°23' W 000°49'614.4
2017-Oct-17 16:00N 37°27' W 000°43'815.0
2017-Oct-17 15:29N 37°32' W 000°36'715.0
2017-Oct-17 15:00N 37°38' W 000°31'814.9
2017-Oct-17 14:30N 37°44' W 000°26'1519.1
2017-Oct-17 13:44N 37°57' W 000°16'36318.9
2017-Oct-16 18:33N 42°43' E 004°36'119.2
2017-Oct-16 18:29N 42°44' E 004°36'1419.4
2017-Oct-16 17:46N 42°56' E 004°48'519.2
2017-Oct-16 17:30N 42°60' E 004°52'919.0
2017-Oct-16 17:00N 43°07' E 004°60'918.7
2017-Oct-16 16:30N 43°14' E 005°08'916.5
2017-Oct-16 15:58N 43°20' E 005°17'2 0.2
2017-Oct-16 06:59N 43°21' E 005°20'0 0.8
2017-Oct-16 06:30N 43°21' E 005°19'4 8.3
2017-Oct-16 05:59N 43°19' E 005°14'510.7
2017-Oct-16 05:30N 43°15' E 005°10'916.2
2017-Oct-16 04:59N 43°08' E 005°16'2418.8
2017-Oct-16 03:42N 42°58' E 005°46'4118.6
2017-Oct-16 01:30N 42°50' E 006°41'1515.9
2017-Oct-16 00:36N 43°00' E 006°55'115.7
2017-Oct-16 00:30N 43°01' E 006°57'815.6
2017-Oct-15 23:58N 43°07' E 007°05'715.4
2017-Oct-15 23:30N 43°11' E 007°13'815.3
2017-Oct-15 23:00N 43°16' E 007°20'815.1
2017-Oct-15 22:30N 43°21' E 007°28'1015.5
2017-Oct-15 21:51N 43°28' E 007°39'615.5
2017-Oct-15 21:27N 43°32' E 007°45'1115.7
2017-Oct-15 20:44N 43°40' E 007°57'416.0
2017-Oct-15 20:27N 43°43' E 008°01'715.7
2017-Oct-15 20:00N 43°47' E 008°09'815.9
2017-Oct-15 19:30N 43°52' E 008°17'815.7
2017-Oct-15 19:00N 43°58' E 008°25'815.5
2017-Oct-15 18:30N 44°03' E 008°33'815.5
2017-Oct-15 18:00N 44°08' E 008°41'815.3
2017-Oct-15 17:30N 44°13' E 008°49'815.3
2017-Oct-15 17:00N 44°18' E 008°57'510.4
2017-Oct-15 16:31N 44°24' E 008°56'1 2.0
2017-Oct-15 16:00N 44°24' E 008°55'0 0.0
2017-Oct-15 15:30N 44°24' E 008°55'0 0.0
2017-Oct-15 14:57N 44°24' E 008°55'0 0.0
2017-Oct-15 13:59N 44°24' E 008°55'0 0.0
2017-Oct-15 13:28N 44°24' E 008°55'0 0.0
2017-Oct-15 13:01N 44°24' E 008°55'0 0.0
2017-Oct-15 12:30N 44°24' E 008°55'0 0.0
2017-Oct-15 11:53N 44°24' E 008°55'0 0.0
2017-Oct-15 11:29N 44°24' E 008°55'0 0.0
2017-Oct-15 10:59N 44°24' E 008°55'0 0.0
2017-Oct-15 10:29N 44°24' E 008°55'0 0.0
2017-Oct-15 09:59N 44°24' E 008°55'0 0.0
2017-Oct-15 09:29N 44°24' E 008°55'0 0.0
2017-Oct-15 08:59N 44°24' E 008°55'0 0.0
2017-Oct-15 08:29N 44°24' E 008°55'0 0.0
2017-Oct-15 07:59N 44°24' E 008°55'0 0.0
2017-Oct-15 07:29N 44°24' E 008°55'0 0.0
2017-Oct-15 07:00N 44°24' E 008°55'0 0.0
2017-Oct-15 06:30N 44°24' E 008°55'0 0.6
2017-Oct-15 06:00N 44°24' E 008°55'2 4.7
2017-Oct-15 05:30N 44°23' E 008°58'5 9.0
2017-Oct-15 05:00N 44°18' E 008°58'612.5
2017-Oct-15 04:30N 44°14' E 008°51'714.6
2017-Oct-15 04:00N 44°11' E 008°42'1020.6
2017-Oct-15 03:30N 44°05' E 008°30'1020.8
2017-Oct-15 03:00N 43°58' E 008°19'4920.3
2017-Oct-15 00:36N 43°29' E 007°24'220.4
2017-Oct-15 00:30N 43°28' E 007°22'1020.5
2017-Oct-15 00:00N 43°22' E 007°11'2320.4
2017-Oct-14 22:52N 43°08' E 006°46'820.5
2017-Oct-14 22:30N 43°03' E 006°38'1020.6
2017-Oct-14 22:00N 42°57' E 006°26'1220.3
2017-Oct-14 21:26N 42°52' E 006°12'1120.4
2017-Oct-14 20:53N 42°47' E 005°59'820.5
2017-Oct-14 20:29N 42°43' E 005°49'1121.0
2017-Oct-14 19:57N 42°37' E 005°36'1021.1
2017-Oct-14 19:28N 42°32' E 005°24'1021.0
2017-Oct-14 19:00N 42°28' E 005°12'1520.7
2017-Oct-14 18:18N 42°21' E 004°55'920.6
2017-Oct-14 17:53N 42°17' E 004°45'820.8
2017-Oct-14 17:29N 42°13' E 004°35'1620.7
2017-Oct-14 16:43N 42°05' E 004°16'10519.9
2017-Oct-14 11:28N 41°18' E 002°10'0 0.0
2017-Oct-14 04:53N 41°18' E 002°10'512.1
2017-Oct-14 04:28N 41°13' E 002°10'817.9
2017-Oct-14 04:00N 41°07' E 002°04'917.2
2017-Oct-14 03:30N 40°59' E 001°58'111 4.7
2017-Oct-13 03:59N 39°13' E 001°17'613.0
2017-Oct-13 03:30N 39°12' E 001°25'1811.8
2017-Oct-13 02:00N 39°04' E 001°46'612.2
2017-Oct-13 01:30N 38°58' E 001°46'612.2
2017-Oct-13 01:00N 38°52' E 001°46'712.1
2017-Oct-13 00:24N 38°44' E 001°46'512.2
2017-Oct-12 23:57N 38°39' E 001°46'512.0
2017-Oct-12 23:30N 38°33' E 001°46'612.0
2017-Oct-12 23:00N 38°27' E 001°46'610.7
2017-Oct-12 22:29N 38°23' E 001°42'611.6
2017-Oct-12 22:00N 38°19' E 001°36'1711.9
2017-Oct-12 20:34N 38°10' E 001°18'111.9
2017-Oct-12 20:30N 38°10' E 001°17'2012.2
2017-Oct-12 18:49N 37°59' E 000°55'1112.5
2017-Oct-12 17:55N 37°54' E 000°43'612.5
2017-Oct-12 17:26N 37°51' E 000°36'612.1
2017-Oct-12 16:54N 37°48' E 000°28'512.4
2017-Oct-12 16:30N 37°45' E 000°23'612.7
2017-Oct-12 16:00N 37°41' E 000°17'612.6
2017-Oct-12 15:30N 37°37' E 000°11'612.3
2017-Oct-12 15:00N 37°33' E 000°06'612.2
2017-Oct-12 14:30N 37°29' W 000°00'612.2
2017-Oct-12 14:00N 37°25' W 000°06'612.1
2017-Oct-12 13:30N 37°21' W 000°12'611.8
2017-Oct-12 13:00N 37°18' W 000°18'611.9
2017-Oct-12 12:30N 37°14' W 000°24'612.0
2017-Oct-12 12:00N 37°11' W 000°31'612.0
2017-Oct-12 11:30N 37°08' W 000°37'612.0
2017-Oct-12 11:00N 37°05' W 000°44'611.8
2017-Oct-12 10:30N 37°02' W 000°50'611.9
2017-Oct-12 10:00N 36°59' W 000°56'811.8
2017-Oct-12 09:19N 36°54' W 001°05'411.8
2017-Oct-12 08:57N 36°52' W 001°09'511.8
2017-Oct-12 08:31N 36°49' W 001°15'1111.8
2017-Oct-12 07:33N 36°43' W 001°27'112.1
2017-Oct-12 07:30N 36°43' W 001°28'  
Track history (hours):
 
Tides and Currents Weather Stations Pressure Air Temp Water Temp Dewpoint Dewpoint Depression Visibility Wind Speed Wind Dir Waves Ship Positions

Costa Mediterranea

Last reported at 2017-Oct-20 19:28 UTC. Time now 2017-Oct-20 19:51 UTC.
Position N 38°43' W 009°08'.

Length 293 m; draft 8 m.

Type: Passenger vessel. MMSI: 247088200.

Date/timePositionNaut miles runAvg speedWind from/ knotsBaromVisibWave heightAir tempDewpointWater temp
2017-Oct-20 19:28N 38°43' W 009°08'0 0.0
2017-Oct-20 18:58N 38°43' W 009°08'0 0.0
2017-Oct-20 18:28N 38°43' W 009°08'0 0.0
2017-Oct-20 17:58N 38°43' W 009°08'0 0.0
2017-Oct-20 17:28N 38°43' W 009°08'0 0.0
2017-Oct-20 16:58N 38°43' W 009°08'0 0.0
2017-Oct-20 16:28N 38°43' W 009°08'0 0.0
2017-Oct-20 15:58N 38°43' W 009°08'0 0.0
2017-Oct-20 15:28N 38°43' W 009°08'0 0.0
2017-Oct-20 14:58N 38°43' W 009°08'0 0.0
2017-Oct-20 13:58N 38°43' W 009°08'0 0.0
2017-Oct-20 13:28N 38°43' W 009°08'0 0.0
2017-Oct-20 12:58N 38°43' W 009°08'0 0.0
2017-Oct-20 12:27N 38°43' W 009°08'0 0.0
2017-Oct-20 11:58N 38°43' W 009°08'0 0.0
2017-Oct-20 11:28N 38°43' W 009°08'0 0.0
2017-Oct-20 10:58N 38°43' W 009°08'0 0.0
2017-Oct-20 10:30N 38°43' W 009°08'0 0.0
2017-Oct-20 09:59N 38°43' W 009°08'0 0.0
2017-Oct-20 09:29N 38°43' W 009°08'0 0.0
2017-Oct-20 08:59N 38°43' W 009°08'0 0.0
2017-Oct-20 08:30N 38°43' W 009°08'0 0.0
2017-Oct-20 07:59N 38°43' W 009°08'0 0.0
2017-Oct-20 07:29N 38°43' W 009°08'0 1.0
2017-Oct-20 07:00N 38°42' W 009°08'6 9.7
2017-Oct-20 06:25N 38°41' W 009°15'511.6
2017-Oct-20 06:00N 38°39' W 009°20'815.9
2017-Oct-20 05:31N 38°33' W 009°27'817.0
2017-Oct-20 05:01N 38°24' W 009°26'917.5
2017-Oct-20 04:31N 38°15' W 009°25'918.1
2017-Oct-20 04:00N 38°06' W 009°25'918.1
2017-Oct-20 03:30N 37°57' W 009°24'918.2
2017-Oct-20 03:01N 37°48' W 009°24'1318.3
2017-Oct-20 02:17N 37°35' W 009°23'5816.6
2017-Oct-19 22:46N 36°42' W 008°52'519.6
2017-Oct-19 22:30N 36°41' W 008°46'1019.4
2017-Oct-19 22:00N 36°41' W 008°34'1319.6
2017-Oct-19 21:20N 36°39' W 008°18'819.4
2017-Oct-19 20:55N 36°39' W 008°08'124 5.7
2017-Oct-18 23:20N 35°58' W 005°43'514.1
2017-Oct-18 23:01N 35°58' W 005°37'816.6
2017-Oct-18 22:30N 36°00' W 005°27'714.4
2017-Oct-18 22:01N 36°02' W 005°19'612.5
2017-Oct-18 21:31N 36°05' W 005°12'221 7.7
2017-Oct-17 16:42N 37°20' W 000°52'414.5
2017-Oct-17 16:27N 37°23' W 000°49'614.4
2017-Oct-17 16:00N 37°27' W 000°43'815.0
2017-Oct-17 15:29N 37°32' W 000°36'715.0
2017-Oct-17 15:00N 37°38' W 000°31'814.9
2017-Oct-17 14:30N 37°44' W 000°26'1519.1
2017-Oct-17 13:44N 37°57' W 000°16'36318.9
2017-Oct-16 18:33N 42°43' E 004°36'119.2
2017-Oct-16 18:29N 42°44' E 004°36'1419.4
2017-Oct-16 17:46N 42°56' E 004°48'519.2
2017-Oct-16 17:30N 42°60' E 004°52'919.0
2017-Oct-16 17:00N 43°07' E 004°60'918.7
2017-Oct-16 16:30N 43°14' E 005°08'916.5
2017-Oct-16 15:58N 43°20' E 005°17'2 0.2
2017-Oct-16 06:59N 43°21' E 005°20'0 0.8
2017-Oct-16 06:30N 43°21' E 005°19'4 8.3
2017-Oct-16 05:59N 43°19' E 005°14'510.7
2017-Oct-16 05:30N 43°15' E 005°10'916.2
2017-Oct-16 04:59N 43°08' E 005°16'2418.8
2017-Oct-16 03:42N 42°58' E 005°46'4118.6
2017-Oct-16 01:30N 42°50' E 006°41'1515.9
2017-Oct-16 00:36N 43°00' E 006°55'115.7
2017-Oct-16 00:30N 43°01' E 006°57'815.6
2017-Oct-15 23:58N 43°07' E 007°05'715.4
2017-Oct-15 23:30N 43°11' E 007°13'815.3
2017-Oct-15 23:00N 43°16' E 007°20'815.1
2017-Oct-15 22:30N 43°21' E 007°28'1015.5
2017-Oct-15 21:51N 43°28' E 007°39'615.5
2017-Oct-15 21:27N 43°32' E 007°45'1115.7
2017-Oct-15 20:44N 43°40' E 007°57'416.0
2017-Oct-15 20:27N 43°43' E 008°01'715.7
2017-Oct-15 20:00N 43°47' E 008°09'815.9
2017-Oct-15 19:30N 43°52' E 008°17'815.7
2017-Oct-15 19:00N 43°58' E 008°25'815.5
2017-Oct-15 18:30N 44°03' E 008°33'815.5
2017-Oct-15 18:00N 44°08' E 008°41'815.3
2017-Oct-15 17:30N 44°13' E 008°49'815.3
2017-Oct-15 17:00N 44°18' E 008°57'510.4
2017-Oct-15 16:31N 44°24' E 008°56'1 2.0
2017-Oct-15 16:00N 44°24' E 008°55'0 0.0
2017-Oct-15 15:30N 44°24' E 008°55'0 0.0
2017-Oct-15 14:57N 44°24' E 008°55'0 0.0
2017-Oct-15 13:59N 44°24' E 008°55'0 0.0
2017-Oct-15 13:28N 44°24' E 008°55'0 0.0
2017-Oct-15 13:01N 44°24' E 008°55'0 0.0
2017-Oct-15 12:30N 44°24' E 008°55'0 0.0
2017-Oct-15 11:53N 44°24' E 008°55'0 0.0
2017-Oct-15 11:29N 44°24' E 008°55'0 0.0
2017-Oct-15 10:59N 44°24' E 008°55'0 0.0
2017-Oct-15 10:29N 44°24' E 008°55'0 0.0
2017-Oct-15 09:59N 44°24' E 008°55'0 0.0
2017-Oct-15 09:29N 44°24' E 008°55'0 0.0
2017-Oct-15 08:59N 44°24' E 008°55'0 0.0
2017-Oct-15 08:29N 44°24' E 008°55'0 0.0
2017-Oct-15 07:59N 44°24' E 008°55'0 0.0
2017-Oct-15 07:29N 44°24' E 008°55'0 0.0
2017-Oct-15 07:00N 44°24' E 008°55'0 0.0
2017-Oct-15 06:30N 44°24' E 008°55'0 0.6
2017-Oct-15 06:00N 44°24' E 008°55'2 4.7
2017-Oct-15 05:30N 44°23' E 008°58'5 9.0
2017-Oct-15 05:00N 44°18' E 008°58'612.5
2017-Oct-15 04:30N 44°14' E 008°51'714.6
2017-Oct-15 04:00N 44°11' E 008°42'1020.6
2017-Oct-15 03:30N 44°05' E 008°30'1020.8
2017-Oct-15 03:00N 43°58' E 008°19'4920.3
2017-Oct-15 00:36N 43°29' E 007°24'220.4
2017-Oct-15 00:30N 43°28' E 007°22'1020.5
2017-Oct-15 00:00N 43°22' E 007°11'2320.4
2017-Oct-14 22:52N 43°08' E 006°46'820.5
2017-Oct-14 22:30N 43°03' E 006°38'1020.6
2017-Oct-14 22:00N 42°57' E 006°26'1220.3
2017-Oct-14 21:26N 42°52' E 006°12'1120.4
2017-Oct-14 20:53N 42°47' E 005°59'820.5
2017-Oct-14 20:29N 42°43' E 005°49'1121.0
2017-Oct-14 19:57N 42°37' E 005°36'1021.1
2017-Oct-14 19:28N 42°32' E 005°24'1021.0
2017-Oct-14 19:00N 42°28' E 005°12'1520.7
2017-Oct-14 18:18N 42°21' E 004°55'920.6
2017-Oct-14 17:53N 42°17' E 004°45'820.8
2017-Oct-14 17:29N 42°13' E 004°35'1620.7
2017-Oct-14 16:43N 42°05' E 004°16'10519.9
2017-Oct-14 11:28N 41°18' E 002°10'0 0.0
2017-Oct-14 04:53N 41°18' E 002°10'512.1
2017-Oct-14 04:28N 41°13' E 002°10'817.9
2017-Oct-14 04:00N 41°07' E 002°04'917.2
2017-Oct-14 03:30N 40°59' E 001°58'111 4.7
2017-Oct-13 03:59N 39°13' E 001°17'613.0
2017-Oct-13 03:30N 39°12' E 001°25'1811.8
2017-Oct-13 02:00N 39°04' E 001°46'612.2
2017-Oct-13 01:30N 38°58' E 001°46'612.2
2017-Oct-13 01:00N 38°52' E 001°46'712.1
2017-Oct-13 00:24N 38°44' E 001°46'512.2
2017-Oct-12 23:57N 38°39' E 001°46'512.0
2017-Oct-12 23:30N 38°33' E 001°46'612.0
2017-Oct-12 23:00N 38°27' E 001°46'610.7
2017-Oct-12 22:29N 38°23' E 001°42'611.6
2017-Oct-12 22:00N 38°19' E 001°36'1711.9
2017-Oct-12 20:34N 38°10' E 001°18'111.9
2017-Oct-12 20:30N 38°10' E 001°17'2012.2
2017-Oct-12 18:49N 37°59' E 000°55'1112.5
2017-Oct-12 17:55N 37°54' E 000°43'612.5
2017-Oct-12 17:26N 37°51' E 000°36'612.1
2017-Oct-12 16:54N 37°48' E 000°28'512.4
2017-Oct-12 16:30N 37°45' E 000°23'612.7
2017-Oct-12 16:00N 37°41' E 000°17'612.6
2017-Oct-12 15:30N 37°37' E 000°11'612.3
2017-Oct-12 15:00N 37°33' E 000°06'612.2
2017-Oct-12 14:30N 37°29' W 000°00'612.2
2017-Oct-12 14:00N 37°25' W 000°06'612.1
2017-Oct-12 13:30N 37°21' W 000°12'611.8
2017-Oct-12 13:00N 37°18' W 000°18'611.9
2017-Oct-12 12:30N 37°14' W 000°24'612.0
2017-Oct-12 12:00N 37°11' W 000°31'612.0
2017-Oct-12 11:30N 37°08' W 000°37'612.0
2017-Oct-12 11:00N 37°05' W 000°44'611.8
2017-Oct-12 10:30N 37°02' W 000°50'611.9
2017-Oct-12 10:00N 36°59' W 000°56'811.8
2017-Oct-12 09:19N 36°54' W 001°05'411.8
2017-Oct-12 08:57N 36°52' W 001°09'511.8
2017-Oct-12 08:31N 36°49' W 001°15'1111.8
2017-Oct-12 07:33N 36°43' W 001°27'112.1
2017-Oct-12 07:30N 36°43' W 001°28'  

Dump ship's entire track history